New Canton, Virginia
Current Conditions -  °F | °C
As of 3:55 AM on Monday 24 Nov 2014 (Local Time) from KFVX Reporting Station
Overcast Overcast  
Wind Chill: 66°   Ceiling: 2400
Heat Index: 66°   Visibility: 10mi
Dew Point: 65°   Wind: 12mph
Humidity: 99%   Direction: 200°SSW
Pressure: 29.68"   Gusts: NA
Location:  37.71°N, 78.3°W
Report Text: KFVX 240855Z AUTO 20010KT 10SM SCT017 OVC024 19/19 A2968 RMK AO2 LTG DSNT S T01880186
Loading
Personal Weather Stations






























Interactive Weather Map New forecast layout! Learn more

10-Day Weather Forecast

Advertisements
Track Severe Weather on mobile